createdAt,value
2022-10-11T00:00:00.947Z,20.42
2022-10-11T00:02:28.111Z,21.70
2022-10-11T00:04:57.462Z,23.35
2022-10-11T00:07:24.305Z,17.80
2022-10-11T00:09:51.146Z,17.05
2022-10-11T00:12:18.259Z,18.77
2022-10-11T00:14:45.082Z,18.58
2022-10-11T00:17:11.930Z,20.12
2022-10-11T00:19:39.038Z,24.33
2022-10-11T00:22:05.941Z,23.58
2022-10-11T00:24:32.810Z,26.20
2022-10-11T00:26:59.921Z,23.35
2022-10-11T00:29:26.819Z,18.70
2022-10-11T00:31:53.682Z,24.98
2022-10-11T00:34:20.773Z,26.48
2022-10-11T00:36:48.638Z,26.08
2022-10-11T00:39:15.539Z,24.70
2022-10-11T00:41:42.646Z,23.35
2022-10-11T00:44:11.754Z,17.42
2022-10-11T00:46:40.767Z,21.80
2022-10-11T00:49:44.234Z,21.35
2022-10-11T00:52:19.786Z,19.83
2022-10-11T00:54:47.810Z,19.33
2022-10-11T00:57:19.397Z,20.48
2022-10-11T00:59:50.966Z,17.33
2022-10-11T01:02:18.480Z,17.52
2022-10-11T01:04:45.443Z,21.40
2022-10-11T01:07:12.973Z,20.58
2022-10-11T01:09:39.929Z,22.60
2022-10-11T01:12:13.946Z,18.40
2022-10-11T01:15:02.969Z,17.12
2022-10-11T01:17:41.137Z,18.77
2022-10-11T01:20:20.719Z,18.27
2022-10-11T01:22:56.458Z,16.60
2022-10-11T01:25:29.594Z,20.48
2022-10-11T01:28:08.390Z,25.15
2022-10-11T01:30:36.977Z,19.12
2022-10-11T01:33:15.794Z,17.50
2022-10-11T01:35:49.191Z,21.80
2022-10-11T01:38:38.251Z,14.30
2022-10-11T01:41:13.284Z,17.95
2022-10-11T01:43:41.429Z,16.98
2022-10-11T01:46:09.609Z,11.82
2022-10-11T01:48:56.920Z,16.05
2022-10-11T01:51:34.006Z,16.50
2022-10-11T01:54:19.179Z,13.02
2022-10-11T01:57:15.641Z,14.25
2022-10-11T02:00:18.512Z,18.20
2022-10-11T02:03:07.331Z,19.42
2022-10-11T02:06:00.010Z,17.90
2022-10-11T02:09:09.308Z,19.98
2022-10-11T02:11:36.535Z,18.23
2022-10-11T02:14:09.593Z,12.13
2022-10-11T02:16:45.177Z,24.98
2022-10-11T02:19:13.610Z,13.60
2022-10-11T02:21:43.131Z,15.70
2022-10-11T02:24:15.027Z,10.63
2022-10-11T02:26:43.919Z,18.42
2022-10-11T02:29:12.476Z,17.75
2022-10-11T02:31:39.757Z,14.35
2022-10-11T02:34:16.922Z,16.70
2022-10-11T02:36:52.751Z,13.60
2022-10-11T02:39:31.355Z,15.15
2022-10-11T02:42:00.251Z,15.43
2022-10-11T02:44:43.035Z,14.70
2022-10-11T02:47:10.084Z,24.10
2022-10-11T02:49:37.184Z,19.75
2022-10-11T02:52:05.900Z,14.98
2022-10-11T02:54:32.817Z,15.50
2022-10-11T02:56:59.931Z,18.58
2022-10-11T02:59:26.771Z,17.52
2022-10-11T03:01:53.713Z,16.12
2022-10-11T03:04:20.904Z,12.98
2022-10-11T03:06:47.761Z,13.13
2022-10-11T03:09:14.630Z,10.80
2022-10-11T03:11:41.729Z,16.35
2022-10-11T03:14:08.603Z,10.55
2022-10-11T03:16:35.452Z,15.93
2022-10-11T03:19:02.573Z,10.18
2022-10-11T03:21:29.442Z,12.48
2022-10-11T03:23:56.270Z,15.95
2022-10-11T03:26:23.456Z,13.45
2022-10-11T03:28:50.353Z,13.48
2022-10-11T03:31:21.840Z,11.70
2022-10-11T03:33:48.957Z,13.77
2022-10-11T03:36:16.138Z,19.95
2022-10-11T03:38:43.059Z,21.12
2022-10-11T03:41:10.168Z,19.20
2022-10-11T03:43:37.160Z,17.37
2022-10-11T03:46:04.394Z,14.98
2022-10-11T03:48:31.665Z,15.90
2022-10-11T03:50:58.497Z,13.23
2022-10-11T03:53:25.362Z,13.07
2022-10-11T03:55:54.340Z,27.17
2022-10-11T03:58:22.003Z,19.77
2022-10-11T04:00:49.190Z,14.20
2022-10-11T04:03:16.320Z,17.70
2022-10-11T04:05:43.165Z,16.70
2022-10-11T04:08:12.387Z,14.20
2022-10-11T04:10:40.080Z,18.27
2022-10-11T04:13:07.445Z,18.48
2022-10-11T04:15:34.329Z,19.70
2022-10-11T04:18:01.738Z,15.45
2022-10-11T04:20:28.586Z,15.32
2022-10-11T04:22:55.427Z,20.48
2022-10-11T04:25:22.511Z,22.95
2022-10-11T04:27:49.351Z,24.98
2022-10-11T04:30:16.607Z,20.73
2022-10-11T04:32:43.755Z,16.10
2022-10-11T04:35:11.212Z,16.40
2022-10-11T04:37:38.066Z,24.12
2022-10-11T04:40:06.821Z,18.27
2022-10-11T04:42:34.453Z,15.73
2022-10-11T04:45:01.371Z,25.88
2022-10-11T04:47:28.502Z,18.55
2022-10-11T04:49:55.351Z,21.10
2022-10-11T04:52:25.576Z,18.33
2022-10-11T04:54:53.137Z,17.65
2022-10-11T04:57:20.002Z,17.83
2022-10-11T04:59:50.145Z,13.40
2022-10-11T05:04:44.739Z,13.02
2022-10-11T05:07:11.608Z,16.98
2022-10-11T05:09:38.705Z,21.52
2022-10-11T05:12:05.941Z,22.90
2022-10-11T05:14:32.800Z,26.35
2022-10-11T05:16:59.930Z,13.40
2022-10-11T05:19:26.813Z,16.65
2022-10-11T05:21:55.066Z,13.57
2022-10-11T05:24:22.200Z,13.48
2022-10-11T05:26:49.507Z,12.75
2022-10-11T05:29:16.350Z,15.75
2022-10-11T05:31:43.457Z,16.48
2022-10-11T05:34:10.303Z,20.30
2022-10-11T05:36:37.234Z,16.15
2022-10-11T05:39:04.506Z,19.58
2022-10-11T05:41:31.497Z,24.02
2022-10-11T05:43:58.377Z,22.37
2022-10-11T05:46:25.484Z,18.00
2022-10-11T05:48:55.141Z,14.27
2022-10-11T05:51:21.978Z,15.17
2022-10-11T05:53:49.285Z,15.40
2022-10-11T05:56:23.365Z,19.02
2022-10-11T05:58:52.598Z,16.75
2022-10-11T06:01:27.042Z,20.12
2022-10-11T06:03:57.310Z,30.70
2022-10-11T06:06:27.200Z,27.85
2022-10-11T06:08:57.177Z,28.87
2022-10-11T06:11:34.876Z,19.42
2022-10-11T06:14:05.863Z,19.10
2022-10-11T06:16:32.741Z,21.40
2022-10-11T06:18:59.609Z,14.60
2022-10-11T06:21:26.757Z,20.83
2022-10-11T06:23:59.862Z,19.33
2022-10-11T06:26:29.095Z,14.40
2022-10-11T06:28:56.449Z,13.88
2022-10-11T06:31:26.474Z,16.70
2022-10-11T06:33:56.516Z,20.92
2022-10-11T06:36:26.175Z,11.35
2022-10-11T06:38:56.446Z,13.60
2022-10-11T06:41:26.214Z,14.25
2022-10-11T06:43:56.872Z,17.80
2022-10-11T06:48:57.522Z,19.00
2022-10-11T06:51:28.644Z,15.70
2022-10-11T06:54:00.073Z,19.50
2022-10-11T06:56:31.255Z,11.75
2022-10-11T06:58:59.392Z,14.32
2022-10-11T07:01:26.719Z,18.65
2022-10-11T07:03:58.220Z,16.23
2022-10-11T07:06:28.952Z,10.35
2022-10-11T07:09:00.350Z,12.45
2022-10-11T07:11:28.233Z,10.68
2022-10-11T07:14:00.166Z,14.48
2022-10-11T07:16:28.071Z,11.98
2022-10-11T07:19:00.562Z,16.87
2022-10-11T07:21:28.924Z,15.48
2022-10-11T07:23:55.858Z,23.45
2022-10-11T07:26:25.849Z,13.75
2022-10-11T07:31:24.908Z,16.23
2022-10-11T07:33:54.117Z,19.42
2022-10-11T07:36:24.201Z,13.83
2022-10-11T07:38:53.563Z,27.52
2022-10-11T07:41:20.732Z,20.67
2022-10-11T07:43:51.072Z,17.60
2022-10-11T07:46:20.435Z,18.65
2022-10-11T07:48:47.639Z,16.90
2022-10-11T07:51:20.288Z,15.35
2022-10-11T07:53:49.518Z,19.08
2022-10-11T07:56:19.440Z,14.98
2022-10-11T07:58:53.750Z,10.75
2022-10-11T08:01:22.552Z,16.23
2022-10-11T08:03:50.274Z,14.57
2022-10-11T08:06:20.469Z,11.90
2022-10-11T08:11:25.825Z,8.73
2022-10-11T08:13:55.851Z,15.60
2022-10-11T08:16:25.980Z,20.77
2022-10-11T08:18:56.991Z,14.45
2022-10-11T08:21:27.179Z,16.83
2022-10-11T08:24:14.064Z,18.10
2022-10-11T08:27:00.953Z,13.00
2022-10-11T08:29:47.603Z,17.08
2022-10-11T08:32:34.561Z,19.48
2022-10-11T08:35:21.249Z,15.60
2022-10-11T08:38:08.182Z,17.52
2022-10-11T08:40:56.917Z,20.85
2022-10-11T08:43:57.952Z,13.52
2022-10-11T08:47:00.450Z,19.55
2022-10-11T08:49:47.642Z,20.58
2022-10-11T08:53:06.567Z,13.73
2022-10-11T08:55:45.061Z,18.07
2022-10-11T08:58:15.820Z,20.88
2022-10-11T09:00:44.795Z,19.23
2022-10-11T09:03:34.229Z,14.43
2022-10-11T09:06:20.403Z,13.62
2022-10-11T09:09:32.866Z,25.05
2022-10-11T09:12:05.763Z,19.27
2022-10-11T09:14:38.604Z,14.68
2022-10-11T09:17:14.762Z,20.48
2022-10-11T09:19:57.405Z,21.85
2022-10-11T09:22:37.915Z,16.42
2022-10-11T09:25:24.703Z,17.35
2022-10-11T09:28:03.601Z,16.85
2022-10-11T09:30:32.114Z,19.27
2022-10-11T09:33:12.523Z,20.02
2022-10-11T09:38:18.241Z,20.65
2022-10-11T09:41:25.832Z,16.60
2022-10-11T09:43:55.961Z,17.98
2022-10-11T09:46:36.867Z,21.48
2022-10-11T09:49:08.197Z,22.30
2022-10-11T09:51:35.102Z,17.60
2022-10-11T09:54:05.283Z,28.08
2022-10-11T09:56:34.375Z,26.48
2022-10-11T09:59:08.852Z,28.27
2022-10-11T10:01:36.414Z,21.50
2022-10-11T10:04:12.423Z,27.67
2022-10-11T10:06:40.089Z,24.58
2022-10-11T10:09:26.229Z,25.95
2022-10-11T10:11:55.016Z,27.02
2022-10-11T10:14:25.659Z,21.80
2022-10-11T10:17:00.897Z,20.17
2022-10-11T10:19:28.536Z,24.65
2022-10-11T10:21:56.124Z,23.92
2022-10-11T10:24:38.380Z,25.17
2022-10-11T10:27:14.288Z,31.77
2022-10-11T10:29:41.696Z,22.83
2022-10-11T10:32:15.492Z,20.08
2022-10-11T10:35:10.557Z,24.42
2022-10-11T10:37:48.646Z,23.83
2022-10-11T10:40:23.354Z,23.67
2022-10-11T10:42:51.098Z,24.90
2022-10-11T10:45:21.502Z,22.40
2022-10-11T10:49:11.764Z,34.55
2022-10-11T10:51:38.325Z,23.50
2022-10-11T10:54:12.008Z,16.75
2022-10-11T10:57:00.119Z,16.40
2022-10-11T10:59:52.343Z,22.25
2022-10-11T11:02:39.564Z,28.33
2022-10-11T11:05:22.803Z,20.73
2022-10-11T11:08:08.365Z,18.80
2022-10-11T11:10:53.157Z,18.55
2022-10-11T11:13:23.205Z,19.65
2022-10-11T11:16:12.184Z,26.10
2022-10-11T11:18:54.404Z,18.00
2022-10-11T11:21:59.206Z,23.65
2022-10-11T11:24:47.179Z,21.73
2022-10-11T11:27:35.302Z,26.27
2022-10-11T11:30:09.699Z,26.87
2022-10-11T11:33:02.364Z,18.15
2022-10-11T11:35:37.117Z,18.87
2022-10-11T11:38:23.048Z,19.60
2022-10-11T11:40:55.796Z,19.75
2022-10-11T11:43:36.601Z,18.95
2022-10-11T11:46:16.275Z,24.48
2022-10-11T11:48:43.610Z,21.17
2022-10-11T11:51:21.658Z,22.10
2022-10-11T11:54:17.650Z,18.52
2022-10-11T11:57:04.471Z,24.80
2022-10-11T11:59:33.978Z,18.42
2022-10-11T12:02:21.253Z,25.62
2022-10-11T12:04:49.356Z,24.50
2022-10-11T12:07:18.915Z,28.60
2022-10-11T12:09:50.636Z,20.90
2022-10-11T12:12:34.026Z,20.08
2022-10-11T12:15:10.211Z,26.50
2022-10-11T12:17:59.147Z,19.45
2022-10-11T12:20:33.315Z,19.65
2022-10-11T12:23:10.242Z,24.12
2022-10-11T12:25:41.879Z,22.17
2022-10-11T12:28:37.004Z,23.70
2022-10-11T12:31:06.776Z,25.20
2022-10-11T12:33:33.960Z,23.17
2022-10-11T12:36:40.126Z,19.52
2022-10-11T12:39:22.777Z,20.88
2022-10-11T12:41:55.557Z,20.45
2022-10-11T12:44:26.297Z,18.73
2022-10-11T12:46:57.654Z,19.05
2022-10-11T12:49:33.990Z,23.30
2022-10-11T12:52:20.243Z,21.25
2022-10-11T12:55:06.040Z,21.73
2022-10-11T12:57:51.514Z,22.58
2022-10-11T13:00:29.963Z,32.92
2022-10-11T13:03:00.432Z,25.17
2022-10-11T13:05:36.800Z,24.12
2022-10-11T13:08:05.619Z,26.62
2022-10-11T13:10:42.489Z,19.17
2022-10-11T13:13:25.692Z,30.60
2022-10-11T13:15:54.353Z,22.02
2022-10-11T13:18:24.354Z,26.08
2022-10-11T13:20:51.240Z,20.02
2022-10-11T13:23:37.517Z,22.62
2022-10-11T13:26:25.869Z,31.17
2022-10-11T13:29:17.942Z,24.20
2022-10-11T13:31:48.280Z,21.25
2022-10-11T13:34:17.659Z,22.52
2022-10-11T13:36:48.019Z,19.60
2022-10-11T13:39:34.634Z,22.75
2022-10-11T13:42:07.617Z,24.77
2022-10-11T13:44:36.795Z,25.23
2022-10-11T13:47:03.985Z,17.20
2022-10-11T13:49:40.039Z,19.05
2022-10-11T13:52:21.056Z,24.87
2022-10-11T13:55:18.051Z,19.75
2022-10-11T13:57:46.917Z,22.25
2022-10-11T14:00:19.843Z,18.12
2022-10-11T14:02:52.579Z,21.45
2022-10-11T14:05:34.775Z,22.27
2022-10-11T14:08:30.155Z,15.88
2022-10-11T14:11:01.297Z,18.90
2022-10-11T14:13:36.715Z,23.02
2022-10-11T14:16:09.698Z,29.90
2022-10-11T14:18:36.877Z,20.80
2022-10-11T14:21:18.971Z,28.17
2022-10-11T14:24:18.257Z,21.83
2022-10-11T14:26:50.207Z,21.20
2022-10-11T14:29:34.886Z,17.23
2022-10-11T14:32:05.141Z,18.92
2022-10-11T14:34:32.444Z,27.37
2022-10-11T14:36:59.371Z,21.35
2022-10-11T14:39:28.379Z,17.60
2022-10-11T14:41:55.531Z,23.95
2022-10-11T14:44:22.709Z,18.00
2022-10-11T14:46:54.031Z,14.45
2022-10-11T14:49:26.537Z,19.35
2022-10-11T14:51:55.395Z,22.65
2022-10-11T14:54:23.725Z,35.88
2022-10-11T14:56:54.919Z,26.33
2022-10-11T14:59:24.529Z,22.33
2022-10-11T15:01:53.797Z,23.25
2022-10-11T15:04:22.364Z,18.42
2022-10-11T15:06:49.880Z,21.95
2022-10-11T15:09:17.335Z,18.30
2022-10-11T15:11:44.183Z,16.08
2022-10-11T15:14:11.029Z,18.12
2022-10-11T15:16:39.974Z,15.57
2022-10-11T15:19:09.997Z,22.95
2022-10-11T15:21:36.869Z,19.33
2022-10-11T15:24:04.006Z,20.02
2022-10-11T15:26:30.935Z,18.75
2022-10-11T15:29:00.660Z,21.10
2022-10-11T15:31:27.816Z,21.90
2022-10-11T15:33:59.708Z,18.58
2022-10-11T15:36:29.632Z,22.65
2022-10-11T15:39:00.079Z,24.58
2022-10-11T15:44:00.362Z,25.75
2022-10-11T15:46:27.206Z,26.25
2022-10-11T15:48:56.815Z,25.27
2022-10-11T15:51:28.428Z,20.50
2022-10-11T15:53:58.105Z,23.52
2022-10-11T15:56:32.906Z,28.40
2022-10-11T15:59:00.703Z,22.75
2022-10-11T16:01:27.883Z,22.10
2022-10-11T16:03:55.088Z,35.85
2022-10-11T16:06:22.061Z,22.95
2022-10-11T16:08:51.606Z,26.00
2022-10-11T16:11:18.726Z,26.95
2022-10-11T16:13:45.557Z,28.15
2022-10-11T16:16:12.871Z,40.03
2022-10-11T16:18:40.133Z,26.00
2022-10-11T16:21:10.146Z,30.37
2022-10-11T16:23:37.802Z,24.92
2022-10-11T16:26:08.192Z,26.52
2022-10-11T16:28:35.894Z,24.77
2022-10-11T16:31:07.950Z,33.13
2022-10-11T16:33:35.390Z,38.63
2022-10-11T16:36:28.895Z,39.70
2022-10-11T16:38:59.667Z,52.08
2022-10-11T16:41:29.603Z,54.03
2022-10-11T16:43:59.887Z,60.72
2022-10-11T16:46:29.646Z,44.28
2022-10-11T16:49:00.113Z,66.32
2022-10-11T16:51:26.993Z,51.20
2022-10-11T16:53:56.744Z,60.65
2022-10-11T16:56:27.307Z,54.90
2022-10-11T17:01:27.959Z,55.03
2022-10-11T17:03:58.171Z,74.78
2022-10-11T17:06:28.545Z,47.30
2022-10-11T17:08:55.446Z,59.33
2022-10-11T17:11:24.383Z,64.50
2022-10-11T17:13:53.343Z,63.53
2022-10-11T17:16:22.199Z,53.03
2022-10-11T17:18:49.353Z,58.22
2022-10-11T17:21:17.795Z,60.05
2022-10-11T17:23:45.050Z,55.28
2022-10-11T17:26:20.718Z,65.87
2022-10-11T17:28:47.987Z,63.28
2022-10-11T17:31:15.131Z,60.83
2022-10-11T17:33:42.438Z,65.20
2022-10-11T17:36:34.457Z,86.35
2022-10-11T17:39:03.094Z,75.87
2022-10-11T17:41:32.216Z,72.47
2022-10-11T17:43:59.866Z,71.20
2022-10-11T17:46:28.114Z,71.53
2022-10-11T17:48:59.795Z,64.40
2022-10-11T17:51:27.401Z,58.85
2022-10-11T17:53:57.647Z,62.75
2022-10-11T17:56:33.711Z,63.13
2022-10-11T17:59:03.657Z,59.33
2022-10-11T18:01:30.825Z,70.60
2022-10-11T18:04:00.069Z,60.75
2022-10-11T18:06:30.300Z,54.47
2022-10-11T18:09:00.262Z,52.35
2022-10-11T18:11:27.117Z,49.05
2022-10-11T18:13:57.124Z,54.45
2022-10-11T18:16:28.951Z,46.50
2022-10-11T18:18:59.015Z,53.53
2022-10-11T18:21:34.247Z,50.75
2022-10-11T18:24:03.721Z,51.70
2022-10-11T18:26:31.203Z,45.20
2022-10-11T18:28:58.758Z,47.17
2022-10-11T18:31:30.380Z,44.42
2022-10-11T18:33:57.735Z,56.90
2022-10-11T18:36:28.891Z,45.67
2022-10-11T18:38:58.643Z,47.15
2022-10-11T18:41:31.896Z,43.78
2022-10-11T18:44:04.384Z,43.97
2022-10-11T18:46:31.831Z,38.25
2022-10-11T18:49:01.228Z,52.67
2022-10-11T18:51:33.500Z,36.10
2022-10-11T18:54:01.166Z,41.72
2022-10-11T18:56:29.511Z,49.03
2022-10-11T18:58:57.276Z,47.75
2022-10-11T19:01:31.931Z,49.10
2022-10-11T19:04:00.552Z,51.13
2022-10-11T19:06:30.362Z,49.40
2022-10-11T19:09:05.695Z,52.07
2022-10-11T19:11:33.261Z,47.10
2022-10-11T19:14:02.517Z,49.05
2022-10-11T19:16:29.955Z,50.53
2022-10-11T19:18:57.426Z,54.67
2022-10-11T19:21:27.402Z,54.67
2022-10-11T19:23:57.427Z,61.13
2022-10-11T19:26:29.117Z,62.28
2022-10-11T19:29:04.487Z,50.70
2022-10-11T19:31:32.600Z,59.13
2022-10-11T19:34:00.675Z,53.75
2022-10-11T19:36:31.383Z,53.70
2022-10-11T19:39:01.296Z,54.97
2022-10-11T19:41:28.439Z,53.15
2022-10-11T19:43:57.950Z,62.72
2022-10-11T19:46:49.893Z,57.55
2022-10-11T19:49:17.599Z,52.40
2022-10-11T19:51:44.863Z,55.47
2022-10-11T19:54:13.707Z,52.50
2022-10-11T19:56:41.184Z,51.17
2022-10-11T19:59:08.575Z,56.30
2022-10-11T20:01:36.287Z,60.25
2022-10-11T20:04:08.345Z,52.25
2022-10-11T20:06:38.631Z,49.60
2022-10-11T20:11:54.110Z,58.28
2022-10-11T20:14:21.307Z,73.43
2022-10-11T20:16:50.135Z,49.20
2022-10-11T20:19:17.286Z,54.35
2022-10-11T20:21:45.120Z,54.15
2022-10-11T20:24:12.178Z,59.13
2022-10-11T20:26:39.382Z,52.00
2022-10-11T20:29:07.182Z,74.25
2022-10-11T20:31:35.014Z,55.00
2022-10-11T20:34:04.242Z,46.17
2022-10-11T20:36:32.468Z,59.65
2022-10-11T20:39:00.001Z,49.10
2022-10-11T20:41:33.004Z,49.50
2022-10-11T20:44:01.364Z,48.38
2022-10-11T20:46:31.282Z,50.97
2022-10-11T20:49:03.426Z,51.40
2022-10-11T20:51:31.745Z,56.22
2022-10-11T20:53:59.168Z,51.88
2022-10-11T20:56:29.775Z,51.63
2022-10-11T20:58:58.219Z,48.03
2022-10-11T21:01:34.397Z,50.90
2022-10-11T21:04:01.963Z,47.08
2022-10-11T21:06:29.981Z,57.75
2022-10-11T21:09:00.447Z,56.55
2022-10-11T21:11:33.314Z,57.00
2022-10-11T21:14:02.319Z,55.92
2022-10-11T21:16:30.080Z,50.40
2022-10-11T21:18:58.665Z,46.80
2022-10-11T21:21:29.356Z,51.97
2022-10-11T21:24:01.059Z,49.63
2022-10-11T21:26:30.994Z,49.17
2022-10-11T21:29:03.900Z,50.10
2022-10-11T21:31:34.095Z,45.63
2022-10-11T21:34:02.287Z,46.17
2022-10-11T21:36:29.157Z,45.97
2022-10-11T21:38:56.349Z,47.42
2022-10-11T21:41:29.957Z,53.60
2022-10-11T21:43:59.940Z,48.72
2022-10-11T21:49:18.596Z,47.88
2022-10-11T21:51:45.698Z,42.92
2022-10-11T21:54:12.549Z,44.38
2022-10-11T21:56:39.412Z,42.08
2022-10-11T21:59:09.510Z,44.55
2022-10-11T22:01:39.557Z,39.42
2022-10-11T22:04:09.568Z,37.00
2022-10-11T22:06:37.354Z,44.30
2022-10-11T22:09:05.006Z,41.83
2022-10-11T22:11:32.126Z,54.67
2022-10-11T22:13:59.061Z,43.40
2022-10-11T22:16:25.940Z,43.13
2022-10-11T22:18:56.199Z,38.15
2022-10-11T22:21:27.077Z,44.60
2022-10-11T22:23:57.676Z,40.78
2022-10-11T22:26:32.137Z,43.78
2022-10-11T22:29:02.111Z,46.40
2022-10-11T22:31:29.387Z,41.20
2022-10-11T22:34:00.035Z,48.53
2022-10-11T22:36:28.213Z,47.17
2022-10-11T22:38:58.664Z,46.75
2022-10-11T22:41:28.521Z,45.05
2022-10-11T22:43:58.726Z,46.67
2022-10-11T22:46:28.612Z,59.75
2022-10-11T22:48:55.729Z,47.47
2022-10-11T22:51:22.638Z,43.33
2022-10-11T22:53:49.489Z,40.88
2022-10-11T22:56:16.691Z,44.47
2022-10-11T22:58:43.551Z,40.00
2022-10-11T23:01:12.097Z,47.90
2022-10-11T23:03:39.334Z,45.17
2022-10-11T23:06:06.527Z,42.13
2022-10-11T23:08:33.404Z,45.45
2022-10-11T23:11:07.215Z,47.13
2022-10-11T23:13:34.586Z,56.88
2022-10-11T23:16:09.408Z,48.72
2022-10-11T23:18:36.425Z,44.45
2022-10-11T23:21:04.349Z,39.97
2022-10-11T23:23:31.196Z,47.25
2022-10-11T23:26:05.130Z,41.00
2022-10-11T23:28:32.342Z,39.90
2022-10-11T23:30:59.338Z,40.22
2022-10-11T23:33:27.886Z,41.03
2022-10-11T23:35:55.075Z,41.08
2022-10-11T23:38:21.949Z,34.70
2022-10-11T23:40:48.809Z,35.13
2022-10-11T23:43:15.917Z,36.33
2022-10-11T23:45:43.830Z,32.67
2022-10-11T23:48:10.771Z,36.95
2022-10-11T23:50:37.865Z,34.65
2022-10-11T23:53:04.865Z,37.45
2022-10-11T23:55:31.730Z,35.10
2022-10-11T23:57:58.840Z,38.88
